Terminal Aerodrome Forecast
Issued by NWS Charleston, WV

Current Version | Previous Version | Text Only | Print | Product List | Glossary Off
Versions: 1 2 3 4 5 6 7 8 9 10 11 12 13 14 15 16 17 18 19 20 21 22 23 24 25 26

000
FTUS41 KRLX 280200 AAA
TAFEKN
TAF AMD
KEKN 280210Z 2802/2824 31008KT 2SM -SN OVC018
      TEMPO 2802/2806 1SM -SN BKN012
     FM280700 32006KT 4SM -SN BKN025
     FM280800 32005KT P6SM BKN025
     FM281500 31006KT P6SM BKN035
     FM281900 31009KT P6SM SCT040
     FM282100 30010KT P6SM SKC=

USA.gov is the U.S. government's official web portal to all federal, state and local government web resources and services.